sensor_id;sensor_type;location;lat;lon;timestamp;pressure;altitude;pressure_sealevel;temperature;humidity
39363;BME280;25088;43.238;23.110;2023-01-30T00:01:40;96835.47;;;1.70;91.50
39363;BME280;25088;43.238;23.110;2023-01-30T00:04:06;96855.44;;;1.82;91.63
39363;BME280;25088;43.238;23.110;2023-01-30T00:06:32;96849.94;;;1.90;90.86
39363;BME280;25088;43.238;23.110;2023-01-30T00:08:57;96854.50;;;1.90;91.07
39363;BME280;25088;43.238;23.110;2023-01-30T00:11:23;96847.81;;;1.86;90.97
39363;BME280;25088;43.238;23.110;2023-01-30T00:13:50;96860.72;;;1.90;91.85
39363;BME280;25088;43.238;23.110;2023-01-30T00:16:16;96853.91;;;1.94;90.89
39363;BME280;25088;43.238;23.110;2023-01-30T00:18:42;96860.19;;;2.01;91.49
39363;BME280;25088;43.238;23.110;2023-01-30T00:21:10;96857.81;;;1.92;91.45
39363;BME280;25088;43.238;23.110;2023-01-30T00:23:36;96853.66;;;1.89;89.93
39363;BME280;25088;43.238;23.110;2023-01-30T00:26:03;96853.97;;;1.79;90.20
39363;BME280;25088;43.238;23.110;2023-01-30T00:28:29;96854.72;;;1.73;90.18
39363;BME280;25088;43.238;23.110;2023-01-30T00:30:55;96849.19;;;1.75;90.31
39363;BME280;25088;43.238;23.110;2023-01-30T00:33:22;96834.22;;;1.72;90.34
39363;BME280;25088;43.238;23.110;2023-01-30T00:35:50;96845.72;;;1.81;90.18
39363;BME280;25088;43.238;23.110;2023-01-30T00:38:16;96839.75;;;1.86;90.67
39363;BME280;25088;43.238;23.110;2023-01-30T00:40:42;96846.22;;;1.91;89.87
39363;BME280;25088;43.238;23.110;2023-01-30T00:43:13;96839.16;;;1.90;90.50
39363;BME280;25088;43.238;23.110;2023-01-30T00:45:58;96828.53;;;1.82;90.50
39363;BME280;25088;43.238;23.110;2023-01-30T00:48:43;96835.41;;;1.85;90.64
39363;BME280;25088;43.238;23.110;2023-01-30T00:51:08;96835.88;;;1.73;91.41
39363;BME280;25088;43.238;23.110;2023-01-30T00:53:34;96831.34;;;1.74;91.10
39363;BME280;25088;43.238;23.110;2023-01-30T00:55:59;96829.09;;;1.77;90.76
39363;BME280;25088;43.238;23.110;2023-01-30T00:58:25;96833.41;;;1.72;91.13
39363;BME280;25088;43.238;23.110;2023-01-30T01:00:51;96824.53;;;1.78;91.33
39363;BME280;25088;43.238;23.110;2023-01-30T01:03:17;96821.69;;;1.79;90.88
39363;BME280;25088;43.238;23.110;2023-01-30T01:05:43;96823.59;;;1.86;90.62
39363;BME280;25088;43.238;23.110;2023-01-30T01:08:09;96819.63;;;1.81;90.99
39363;BME280;25088;43.238;23.110;2023-01-30T01:10:35;96818.53;;;1.76;91.25
39363;BME280;25088;43.238;23.110;2023-01-30T01:13:01;96822.88;;;1.77;91.33
39363;BME280;25088;43.238;23.110;2023-01-30T01:15:27;96816.53;;;1.85;91.45
39363;BME280;25088;43.238;23.110;2023-01-30T01:17:53;96818.34;;;1.77;91.19
39363;BME280;25088;43.238;23.110;2023-01-30T01:20:19;96830.44;;;1.67;91.13
39363;BME280;25088;43.238;23.110;2023-01-30T01:22:46;96824.25;;;1.66;91.71
39363;BME280;25088;43.238;23.110;2023-01-30T01:25:14;96814.41;;;1.59;92.50
39363;BME280;25088;43.238;23.110;2023-01-30T01:27:40;96818.09;;;1.72;93.34
39363;BME280;25088;43.238;23.110;2023-01-30T01:30:06;96820.66;;;1.80;94.09
39363;BME280;25088;43.238;23.110;2023-01-30T01:32:32;96814.19;;;1.75;93.35
39363;BME280;25088;43.238;23.110;2023-01-30T01:34:58;96818.09;;;1.72;93.03
39363;BME280;25088;43.238;23.110;2023-01-30T01:37:23;96815.44;;;1.79;92.16
39363;BME280;25088;43.238;23.110;2023-01-30T01:39:49;96812.38;;;1.82;91.94
39363;BME280;25088;43.238;23.110;2023-01-30T01:42:35;96812.75;;;1.79;92.23
39363;BME280;25088;43.238;23.110;2023-01-30T01:45:16;96809.38;;;1.70;93.05
39363;BME280;25088;43.238;23.110;2023-01-30T01:48:20;96814.88;;;1.62;93.66
39363;BME280;25088;43.238;23.110;2023-01-30T01:50:52;96809.63;;;1.54;93.14
39363;BME280;25088;43.238;23.110;2023-01-30T01:53:23;96796.88;;;1.41;93.87
39363;BME280;25088;43.238;23.110;2023-01-30T01:55:52;96812.91;;;1.49;93.93
39363;BME280;25088;43.238;23.110;2023-01-30T01:58:28;96802.78;;;1.30;93.67
39363;BME280;25088;43.238;23.110;2023-01-30T02:00:57;96808.06;;;1.23;94.05
39363;BME280;25088;43.238;23.110;2023-01-30T02:03:26;96811.59;;;1.24;95.28
39363;BME280;25088;43.238;23.110;2023-01-30T02:05:56;96815.47;;;1.36;95.02
39363;BME280;25088;43.238;23.110;2023-01-30T02:08:30;96811.00;;;1.28;94.98
39363;BME280;25088;43.238;23.110;2023-01-30T02:11:02;96809.34;;;1.27;95.10
39363;BME280;25088;43.238;23.110;2023-01-30T02:13:30;96803.41;;;1.32;94.22
39363;BME280;25088;43.238;23.110;2023-01-30T02:15:57;96812.50;;;1.31;95.07
39363;BME280;25088;43.238;23.110;2023-01-30T02:18:24;96785.34;;;1.26;99.20
39363;BME280;25088;43.238;23.110;2023-01-30T02:32:21;96792.53;;;1.40;94.40
39363;BME280;25088;43.238;23.110;2023-01-30T02:35:17;96796.31;;;1.46;94.96
39363;BME280;25088;43.238;23.110;2023-01-30T02:38:07;96798.75;;;1.41;94.94
39363;BME280;25088;43.238;23.110;2023-01-30T02:49:13;96784.94;;;1.08;98.79
39363;BME280;25088;43.238;23.110;2023-01-30T02:51:40;96793.06;;;1.14;100.00
39363;BME280;25088;43.238;23.110;2023-01-30T02:54:10;96796.63;;;1.15;100.00
39363;BME280;25088;43.238;23.110;2023-01-30T02:56:51;96800.44;;;1.06;100.00
39363;BME280;25088;43.238;23.110;2023-01-30T02:59:38;96803.41;;;0.96;100.00
39363;BME280;25088;43.238;23.110;2023-01-30T03:08:14;96803.91;;;0.85;100.00
39363;BME280;25088;43.238;23.110;2023-01-30T03:10:59;96794.44;;;0.89;100.00
39363;BME280;25088;43.238;23.110;2023-01-30T03:16:34;96788.41;;;0.87;100.00
39363;BME280;25088;43.238;23.110;2023-01-30T03:19:02;96790.75;;;0.90;100.00
39363;BME280;25088;43.238;23.110;2023-01-30T03:21:28;96789.53;;;0.92;100.00
39363;BME280;25088;43.238;23.110;2023-01-30T03:23:54;96780.94;;;1.03;100.00
39363;BME280;25088;43.238;23.110;2023-01-30T03:26:22;96794.66;;;1.09;100.00
39363;BME280;25088;43.238;23.110;2023-01-30T03:28:49;96787.16;;;1.04;100.00
39363;BME280;25088;43.238;23.110;2023-01-30T03:31:16;96778.09;;;1.05;100.00
39363;BME280;25088;43.238;23.110;2023-01-30T03:33:41;96792.50;;;1.19;100.00
39363;BME280;25088;43.238;23.110;2023-01-30T03:36:08;96795.19;;;1.19;100.00
39363;BME280;25088;43.238;23.110;2023-01-30T03:38:34;96791.59;;;1.12;100.00
39363;BME280;25088;43.238;23.110;2023-01-30T03:41:01;96788.59;;;1.21;100.00
39363;BME280;25088;43.238;23.110;2023-01-30T03:43:26;96783.22;;;1.21;100.00
39363;BME280;25088;43.238;23.110;2023-01-30T03:45:52;96770.63;;;1.22;100.00
39363;BME280;25088;43.238;23.110;2023-01-30T03:48:17;96775.09;;;1.15;100.00
39363;BME280;25088;43.238;23.110;2023-01-30T03:50:43;96754.59;;;1.14;100.00
39363;BME280;25088;43.238;23.110;2023-01-30T03:53:08;96759.78;;;1.15;100.00
39363;BME280;25088;43.238;23.110;2023-01-30T03:55:34;96762.50;;;1.15;100.00
39363;BME280;25088;43.238;23.110;2023-01-30T03:57:59;96759.53;;;1.10;100.00
39363;BME280;25088;43.238;23.110;2023-01-30T04:00:25;96756.44;;;1.13;100.00
39363;BME280;25088;43.238;23.110;2023-01-30T04:02:51;96758.72;;;1.10;100.00
39363;BME280;25088;43.238;23.110;2023-01-30T04:05:17;96752.03;;;1.06;100.00
39363;BME280;25088;43.238;23.110;2023-01-30T04:07:43;96735.50;;;1.09;100.00
39363;BME280;25088;43.238;23.110;2023-01-30T04:10:09;96738.19;;;1.09;100.00
39363;BME280;25088;43.238;23.110;2023-01-30T04:12:35;96727.44;;;1.09;100.00
39363;BME280;25088;43.238;23.110;2023-01-30T04:15:00;96735.41;;;1.17;100.00
39363;BME280;25088;43.238;23.110;2023-01-30T04:17:25;96730.38;;;1.14;100.00
39363;BME280;25088;43.238;23.110;2023-01-30T04:19:51;96729.75;;;1.12;100.00
39363;BME280;25088;43.238;23.110;2023-01-30T04:22:16;96734.31;;;1.11;100.00
39363;BME280;25088;43.238;23.110;2023-01-30T04:24:42;96723.75;;;1.10;100.00
39363;BME280;25088;43.238;23.110;2023-01-30T04:27:07;96733.28;;;1.12;100.00
39363;BME280;25088;43.238;23.110;2023-01-30T04:29:33;96732.19;;;1.07;100.00
39363;BME280;25088;43.238;23.110;2023-01-30T04:31:59;96725.78;;;1.08;100.00
39363;BME280;25088;43.238;23.110;2023-01-30T04:34:24;96727.19;;;1.03;100.00
39363;BME280;25088;43.238;23.110;2023-01-30T04:36:50;96726.56;;;1.01;100.00
39363;BME280;25088;43.238;23.110;2023-01-30T04:39:15;96725.53;;;1.02;100.00
39363;BME280;25088;43.238;23.110;2023-01-30T04:41:41;96725.53;;;1.02;100.00
39363;BME280;25088;43.238;23.110;2023-01-30T04:44:06;96724.13;;;1.07;100.00
39363;BME280;25088;43.238;23.110;2023-01-30T04:46:32;96728.88;;;1.05;100.00
39363;BME280;25088;43.238;23.110;2023-01-30T04:48:57;96726.09;;;0.98;100.00
39363;BME280;25088;43.238;23.110;2023-01-30T04:51:23;96726.56;;;1.01;100.00
39363;BME280;25088;43.238;23.110;2023-01-30T04:53:48;96730.44;;;0.99;100.00
39363;BME280;25088;43.238;23.110;2023-01-30T04:56:13;96718.22;;;0.96;100.00
39363;BME280;25088;43.238;23.110;2023-01-30T04:58:39;96736.09;;;1.04;100.00
39363;BME280;25088;43.238;23.110;2023-01-30T05:01:21;96725.47;;;0.96;100.00
39363;BME280;25088;43.238;23.110;2023-01-30T05:03:51;96706.97;;;0.86;100.00
39363;BME280;25088;43.238;23.110;2023-01-30T05:06:17;96727.19;;;1.03;100.00
39363;BME280;25088;43.238;23.110;2023-01-30T05:08:43;96720.53;;;0.99;100.00
39363;BME280;25088;43.238;23.110;2023-01-30T05:11:11;96725.53;;;1.02;100.00
39363;BME280;25088;43.238;23.110;2023-01-30T05:13:37;96719.25;;;0.95;100.00
39363;BME280;25088;43.238;23.110;2023-01-30T05:16:02;96728.53;;;0.93;100.00
39363;BME280;25088;43.238;23.110;2023-01-30T05:18:28;96726.25;;;0.90;100.00
39363;BME280;25088;43.238;23.110;2023-01-30T05:21:03;96705.03;;;0.80;100.00
39363;BME280;25088;43.238;23.110;2023-01-30T05:23:29;96737.41;;;0.93;100.00
39363;BME280;25088;43.238;23.110;2023-01-30T05:25:54;96733.34;;;0.97;100.00
39363;BME280;25088;43.238;23.110;2023-01-30T05:28:20;96733.59;;;1.02;100.00
39363;BME280;25088;43.238;23.110;2023-01-30T05:30:46;96740.25;;;1.07;100.00
39363;BME280;25088;43.238;23.110;2023-01-30T05:33:11;96738.78;;;1.04;100.00
39363;BME280;25088;43.238;23.110;2023-01-30T05:35:36;96738.50;;;0.99;100.00
39363;BME280;25088;43.238;23.110;2023-01-30T05:38:02;96723.59;;;0.96;100.00
39363;BME280;25088;43.238;23.110;2023-01-30T05:40:27;96716.38;;;0.97;100.00
39363;BME280;25088;43.238;23.110;2023-01-30T05:42:53;96715.84;;;0.87;100.00
39363;BME280;25088;43.238;23.110;2023-01-30T05:45:18;96735.97;;;0.91;100.00
39363;BME280;25088;43.238;23.110;2023-01-30T05:47:49;96731.47;;;0.98;100.00
39363;BME280;25088;43.238;23.110;2023-01-30T05:50:16;96726.56;;;1.01;100.00
39363;BME280;25088;43.238;23.110;2023-01-30T05:52:41;96739.34;;;0.99;100.00
39363;BME280;25088;43.238;23.110;2023-01-30T05:55:07;96735.66;;;1.00;100.00
39363;BME280;25088;43.238;23.110;2023-01-30T05:57:32;96737.09;;;1.03;100.00
39363;BME280;25088;43.238;23.110;2023-01-30T05:59:58;96688.16;;;0.50;100.00
39363;BME280;25088;43.238;23.110;2023-01-30T06:02:23;96735.56;;;0.94;100.00
39363;BME280;25088;43.238;23.110;2023-01-30T06:04:49;96737.41;;;0.93;100.00
39363;BME280;25088;43.238;23.110;2023-01-30T06:07:14;96731.22;;;0.93;100.00
39363;BME280;25088;43.238;23.110;2023-01-30T06:09:40;96737.69;;;0.98;100.00
39363;BME280;25088;43.238;23.110;2023-01-30T06:12:05;96737.25;;;0.95;100.00
39363;BME280;25088;43.238;23.110;2023-01-30T06:14:31;96740.19;;;1.00;100.00
39363;BME280;25088;43.238;23.110;2023-01-30T06:16:57;96743.16;;;1.05;100.00
39363;BME280;25088;43.238;23.110;2023-01-30T06:19:22;96738.09;;;1.17;100.00
39363;BME280;25088;43.238;23.110;2023-01-30T06:21:47;96738.13;;;1.23;100.00
39363;BME280;25088;43.238;23.110;2023-01-30T06:24:13;96746.59;;;1.20;100.00
39363;BME280;25088;43.238;23.110;2023-01-30T06:26:38;96724.38;;;1.12;100.00
39363;BME280;25088;43.238;23.110;2023-01-30T06:29:04;96743.44;;;1.38;100.00
39363;BME280;25088;43.238;23.110;2023-01-30T06:31:29;96646.09;;;0.78;100.00
39363;BME280;25088;43.238;23.110;2023-01-30T06:33:55;96739.16;;;1.44;100.00
39363;BME280;25088;43.238;23.110;2023-01-30T06:36:20;96740.44;;;1.48;100.00
39363;BME280;25088;43.238;23.110;2023-01-30T06:38:46;96732.50;;;1.61;100.00
39363;BME280;25088;43.238;23.110;2023-01-30T06:41:12;96739.94;;;1.87;99.71
39363;BME280;25088;43.238;23.110;2023-01-30T06:43:39;96733.16;;;1.98;96.44
39363;BME280;25088;43.238;23.110;2023-01-30T06:46:05;96748.41;;;2.12;93.76
39363;BME280;25088;43.238;23.110;2023-01-30T06:48:30;96743.91;;;2.19;95.37
39363;BME280;25088;43.238;23.110;2023-01-30T06:50:56;96744.75;;;2.26;97.71
39363;BME280;25088;43.238;23.110;2023-01-30T06:53:21;96750.16;;;2.33;93.67
39363;BME280;25088;43.238;23.110;2023-01-30T06:55:49;96747.31;;;2.41;92.90
39363;BME280;25088;43.238;23.110;2023-01-30T06:58:14;96740.28;;;2.40;90.91
39363;BME280;25088;43.238;23.110;2023-01-30T07:00:41;96745.31;;;2.50;89.38
39363;BME280;25088;43.238;23.110;2023-01-30T07:03:14;96755.63;;;2.40;88.60
39363;BME280;25088;43.238;23.110;2023-01-30T07:05:41;96750.53;;;2.23;89.00
39363;BME280;25088;43.238;23.110;2023-01-30T07:08:07;96724.38;;;2.11;90.49
39363;BME280;25088;43.238;23.110;2023-01-30T07:10:33;96746.94;;;2.10;90.64
39363;BME280;25088;43.238;23.110;2023-01-30T07:13:00;96757.31;;;2.13;93.60
39363;BME280;25088;43.238;23.110;2023-01-30T07:15:26;96741.69;;;2.01;94.75
39363;BME280;25088;43.238;23.110;2023-01-30T07:17:51;96746.00;;;2.24;93.42
39363;BME280;25088;43.238;23.110;2023-01-30T07:20:17;96746.41;;;2.27;92.41
39363;BME280;25088;43.238;23.110;2023-01-30T07:22:48;96735.22;;;2.24;92.96
39363;BME280;25088;43.238;23.110;2023-01-30T07:25:14;96744.00;;;2.39;92.60
39363;BME280;25088;43.238;23.110;2023-01-30T07:27:40;96723.22;;;2.33;89.96
39363;BME280;25088;43.238;23.110;2023-01-30T07:30:06;96733.19;;;2.32;90.08
39363;BME280;25088;43.238;23.110;2023-01-30T07:32:32;96730.69;;;2.31;89.66
39363;BME280;25088;43.238;23.110;2023-01-30T07:34:57;96727.75;;;2.26;89.44
39363;BME280;25088;43.238;23.110;2023-01-30T07:37:22;96729.84;;;2.24;89.25
39363;BME280;25088;43.238;23.110;2023-01-30T07:39:48;96729.19;;;2.22;88.61
39363;BME280;25088;43.238;23.110;2023-01-30T07:42:13;96731.03;;;2.15;88.80
39363;BME280;25088;43.238;23.110;2023-01-30T07:44:39;96722.16;;;2.21;89.68
39363;BME280;25088;43.238;23.110;2023-01-30T07:47:04;96685.94;;;1.95;88.61
39363;BME280;25088;43.238;23.110;2023-01-30T07:49:30;96718.28;;;2.02;90.20
39363;BME280;25088;43.238;23.110;2023-01-30T07:51:55;96699.34;;;1.89;90.73
39363;BME280;25088;43.238;23.110;2023-01-30T07:54:21;96712.69;;;2.03;91.39
39363;BME280;25088;43.238;23.110;2023-01-30T07:56:46;96706.94;;;2.06;91.30
39363;BME280;25088;43.238;23.110;2023-01-30T07:59:12;96710.31;;;2.15;91.01
39363;BME280;25088;43.238;23.110;2023-01-30T08:01:38;96707.63;;;2.15;93.27
39363;BME280;25088;43.238;23.110;2023-01-30T08:04:03;96706.13;;;2.13;91.65
39363;BME280;25088;43.238;23.110;2023-01-30T08:06:29;96702.00;;;2.17;91.66
39363;BME280;25088;43.238;23.110;2023-01-30T08:08:55;96698.69;;;2.15;88.98
39363;BME280;25088;43.238;23.110;2023-01-30T08:11:20;96697.22;;;2.12;90.31
39363;BME280;25088;43.238;23.110;2023-01-30T08:13:46;96691.41;;;2.08;90.39
39363;BME280;25088;43.238;23.110;2023-01-30T08:16:11;96690.56;;;2.08;90.95
39363;BME280;25088;43.238;23.110;2023-01-30T08:18:37;96687.47;;;2.04;92.46
39363;BME280;25088;43.238;23.110;2023-01-30T08:21:04;96680.38;;;2.03;91.92
39363;BME280;25088;43.238;23.110;2023-01-30T08:23:31;96696.53;;;2.03;92.30
39363;BME280;25088;43.238;23.110;2023-01-30T08:25:59;96680.59;;;2.02;91.49
39363;BME280;25088;43.238;23.110;2023-01-30T08:28:25;96631.28;;;1.60;90.40
39363;BME280;25088;43.238;23.110;2023-01-30T08:30:52;96671.44;;;1.96;91.32
39363;BME280;25088;43.238;23.110;2023-01-30T08:33:21;96688.47;;;2.03;89.74
39363;BME280;25088;43.238;23.110;2023-01-30T08:35:47;96690.44;;;1.88;87.54
39363;BME280;25088;43.238;23.110;2023-01-30T08:38:13;96684.81;;;1.83;88.17
39363;BME280;25088;43.238;23.110;2023-01-30T08:40:39;96695.81;;;1.88;86.90
39363;BME280;25088;43.238;23.110;2023-01-30T08:43:04;96691.25;;;1.82;87.14
39363;BME280;25088;43.238;23.110;2023-01-30T08:45:30;96694.81;;;1.89;86.02
39363;BME280;25088;43.238;23.110;2023-01-30T08:48:00;96693.59;;;1.92;85.72
39363;BME280;25088;43.238;23.110;2023-01-30T08:50:26;96709.59;;;2.00;84.83
39363;BME280;25088;43.238;23.110;2023-01-30T08:52:51;96713.84;;;1.88;84.53
39363;BME280;25088;43.238;23.110;2023-01-30T08:55:17;96705.38;;;1.91;84.70
39363;BME280;25088;43.238;23.110;2023-01-30T08:57:43;96707.00;;;1.85;84.01
39363;BME280;25088;43.238;23.110;2023-01-30T09:00:09;96710.19;;;1.95;85.17
39363;BME280;25088;43.238;23.110;2023-01-30T09:02:35;96709.78;;;1.98;83.82
39363;BME280;25088;43.238;23.110;2023-01-30T09:05:00;96696.47;;;1.90;83.29
39363;BME280;25088;43.238;23.110;2023-01-30T09:07:26;96708.94;;;1.98;82.16
39363;BME280;25088;43.238;23.110;2023-01-30T09:09:53;96709.16;;;1.96;81.90
39363;BME280;25088;43.238;23.110;2023-01-30T09:12:19;96711.47;;;1.99;81.32
39363;BME280;25088;43.238;23.110;2023-01-30T09:14:45;96708.22;;;2.11;82.14
39363;BME280;25088;43.238;23.110;2023-01-30T09:17:10;96706.53;;;2.10;81.93
39363;BME280;25088;43.238;23.110;2023-01-30T09:19:36;96706.13;;;2.13;81.42
39363;BME280;25088;43.238;23.110;2023-01-30T09:22:01;96693.31;;;2.15;80.31
39363;BME280;25088;43.238;23.110;2023-01-30T09:24:27;96692.91;;;2.18;78.42
39363;BME280;25088;43.238;23.110;2023-01-30T09:26:53;96694.56;;;2.19;79.05
39363;BME280;25088;43.238;23.110;2023-01-30T09:29:22;96691.00;;;2.12;78.11
39363;BME280;25088;43.238;23.110;2023-01-30T09:31:47;96691.16;;;2.03;77.55
39363;BME280;25088;43.238;23.110;2023-01-30T09:34:13;96704.47;;;2.12;77.74
39363;BME280;25088;43.238;23.110;2023-01-30T09:36:38;96699.06;;;2.05;77.64
39363;BME280;25088;43.238;23.110;2023-01-30T09:39:04;96689.03;;;1.92;80.17
39363;BME280;25088;43.238;23.110;2023-01-30T09:42:00;96657.03;;;1.76;79.75
39363;BME280;25088;43.238;23.110;2023-01-30T09:57:46;96651.81;;;2.02;77.80
39363;BME280;25088;43.238;23.110;2023-01-30T10:00:37;96648.97;;;2.17;76.79
39363;BME280;25088;43.238;23.110;2023-01-30T10:03:16;96645.22;;;2.12;75.69
39363;BME280;25088;43.238;23.110;2023-01-30T10:16:35;96620.41;;;2.23;77.15
39363;BME280;25088;43.238;23.110;2023-01-30T10:24:54;96595.16;;;2.30;77.42
39363;BME280;25088;43.238;23.110;2023-01-30T10:27:25;96590.00;;;2.42;75.84
39363;BME280;25088;43.238;23.110;2023-01-30T10:29:57;96569.13;;;2.51;75.04
39363;BME280;25088;43.238;23.110;2023-01-30T10:32:47;96565.81;;;2.55;75.43
39363;BME280;25088;43.238;23.110;2023-01-30T10:35:28;96562.69;;;2.45;74.44
39363;BME280;25088;43.238;23.110;2023-01-30T10:43:02;96541.72;;;2.47;76.02
39363;BME280;25088;43.238;23.110;2023-01-30T10:45:40;96516.63;;;2.20;76.47
39363;BME280;25088;43.238;23.110;2023-01-30T10:51:17;96533.81;;;2.26;76.59
39363;BME280;25088;43.238;23.110;2023-01-30T10:53:46;96473.16;;;1.69;77.21
39363;BME280;25088;43.238;23.110;2023-01-30T10:56:26;96525.25;;;2.02;77.70
39363;BME280;25088;43.238;23.110;2023-01-30T11:01:43;96510.19;;;2.15;80.57
39363;BME280;25088;43.238;23.110;2023-01-30T11:06:51;96506.44;;;2.09;79.16
39363;BME280;25088;43.238;23.110;2023-01-30T11:09:17;96498.97;;;2.11;80.47
39363;BME280;25088;43.238;23.110;2023-01-30T11:11:49;96485.28;;;2.06;82.07
39363;BME280;25088;43.238;23.110;2023-01-30T11:14:15;96487.38;;;2.17;80.18
39363;BME280;25088;43.238;23.110;2023-01-30T11:16:49;96480.28;;;1.96;81.41
39363;BME280;25088;43.238;23.110;2023-01-30T11:19:18;96465.28;;;1.67;79.51
39363;BME280;25088;43.238;23.110;2023-01-30T11:21:49;96481.88;;;1.71;79.62
39363;BME280;25088;43.238;23.110;2023-01-30T11:24:18;96474.19;;;1.68;79.14
39363;BME280;25088;43.238;23.110;2023-01-30T11:26:45;96473.94;;;1.56;80.37
39363;BME280;25088;43.238;23.110;2023-01-30T11:29:31;96471.25;;;1.56;80.58
39363;BME280;25088;43.238;23.110;2023-01-30T11:32:04;96468.94;;;1.46;81.42
39363;BME280;25088;43.238;23.110;2023-01-30T11:34:30;96457.72;;;1.43;80.15
39363;BME280;25088;43.238;23.110;2023-01-30T11:37:24;96456.75;;;1.50;81.87
39363;BME280;25088;43.238;23.110;2023-01-30T11:39:52;96449.50;;;1.44;80.45
39363;BME280;25088;43.238;23.110;2023-01-30T11:42:28;96449.88;;;1.41;80.29
39363;BME280;25088;43.238;23.110;2023-01-30T11:44:58;96448.84;;;1.42;79.84
39363;BME280;25088;43.238;23.110;2023-01-30T11:47:27;96443.84;;;1.39;78.78
39363;BME280;25088;43.238;23.110;2023-01-30T11:49:57;96434.59;;;1.48;79.03
39363;BME280;25088;43.238;23.110;2023-01-30T11:52:32;96440.59;;;1.50;78.22
39363;BME280;25088;43.238;23.110;2023-01-30T11:55:02;96436.25;;;1.49;77.26
39363;BME280;25088;43.238;23.110;2023-01-30T11:57:51;96435.38;;;1.42;78.21
39363;BME280;25088;43.238;23.110;2023-01-30T12:00:26;96425.03;;;1.39;77.68
39363;BME280;25088;43.238;23.110;2023-01-30T12:02:52;96417.59;;;1.41;77.62
39363;BME280;25088;43.238;23.110;2023-01-30T12:05:45;96418.66;;;1.53;77.68
39363;BME280;25088;43.238;23.110;2023-01-30T12:10:56;96409.16;;;1.51;78.88
39363;BME280;25088;43.238;23.110;2023-01-30T12:13:30;96383.03;;;1.38;76.85
39363;BME280;25088;43.238;23.110;2023-01-30T12:16:21;96394.84;;;1.44;76.94
39363;BME280;25088;43.238;23.110;2023-01-30T12:19:01;96391.28;;;1.30;75.93
39363;BME280;25088;43.238;23.110;2023-01-30T12:24:24;96388.63;;;1.37;75.75
39363;BME280;25088;43.238;23.110;2023-01-30T12:26:59;96376.19;;;1.36;76.19
39363;BME280;25088;43.238;23.110;2023-01-30T12:29:37;96384.06;;;1.44;76.83
39363;BME280;25088;43.238;23.110;2023-01-30T12:32:17;96378.22;;;1.27;76.66
39363;BME280;25088;43.238;23.110;2023-01-30T12:34:44;96376.19;;;1.36;76.04
39363;BME280;25088;43.238;23.110;2023-01-30T12:40:33;96366.31;;;1.49;76.50
39363;BME280;25088;43.238;23.110;2023-01-30T12:43:20;96360.72;;;1.44;76.47
39363;BME280;25088;43.238;23.110;2023-01-30T12:46:01;96355.94;;;1.40;75.79
39363;BME280;25088;43.238;23.110;2023-01-30T12:51:39;96341.88;;;1.44;76.05
39363;BME280;25088;43.238;23.110;2023-01-30T12:54:17;96324.09;;;1.50;74.93
39363;BME280;25088;43.238;23.110;2023-01-30T13:02:36;96316.25;;;1.68;74.66
39363;BME280;25088;43.238;23.110;2023-01-30T13:18:34;96309.22;;;1.67;75.45
39363;BME280;25088;43.238;23.110;2023-01-30T13:26:57;96299.28;;;1.54;75.08
39363;BME280;25088;43.238;23.110;2023-01-30T13:29:31;96299.47;;;1.53;75.90
39363;BME280;25088;43.238;23.110;2023-01-30T13:32:03;96304.84;;;1.46;78.09
39363;BME280;25088;43.238;23.110;2023-01-30T13:34:35;96307.75;;;1.51;77.29
39363;BME280;25088;43.238;23.110;2023-01-30T13:37:16;96307.75;;;1.58;76.74
39363;BME280;25088;43.238;23.110;2023-01-30T13:42:42;96309.56;;;1.38;78.23
39363;BME280;25088;43.238;23.110;2023-01-30T13:45:20;96315.31;;;1.15;79.16
39363;BME280;25088;43.238;23.110;2023-01-30T13:55:57;96313.63;;;1.07;82.38
39363;BME280;25088;43.238;23.110;2023-01-30T14:01:12;96309.50;;;1.05;83.69
39363;BME280;25088;43.238;23.110;2023-01-30T14:03:41;96302.88;;;1.00;83.23
39363;BME280;25088;43.238;23.110;2023-01-30T14:06:28;96297.06;;;1.03;82.75
39363;BME280;25088;43.238;23.110;2023-01-30T14:08:56;96294.38;;;1.03;82.14
39363;BME280;25088;43.238;23.110;2023-01-30T14:11:28;96287.19;;;1.11;81.96
39363;BME280;25088;43.238;23.110;2023-01-30T14:16:42;96277.91;;;1.20;82.05
39363;BME280;25088;43.238;23.110;2023-01-30T14:22:28;96270.44;;;1.15;81.38
39363;BME280;25088;43.238;23.110;2023-01-30T14:38:24;96228.03;;;1.11;83.03
39363;BME280;25088;43.238;23.110;2023-01-30T14:45:50;96245.16;;;0.90;86.34
39363;BME280;25088;43.238;23.110;2023-01-30T14:51:44;96235.81;;;0.86;88.30
39363;BME280;25088;43.238;23.110;2023-01-30T14:59:32;96245.47;;;0.73;88.49
39363;BME280;25088;43.238;23.110;2023-01-30T15:04:37;96239.03;;;0.61;88.15
39363;BME280;25088;43.238;23.110;2023-01-30T15:09:44;96232.63;;;0.56;89.49
39363;BME280;25088;43.238;23.110;2023-01-30T15:15:12;96234.66;;;0.54;91.02
39363;BME280;25088;43.238;23.110;2023-01-30T15:20:35;96226.34;;;0.35;95.95
39363;BME280;25088;43.238;23.110;2023-01-30T15:31:04;96210.50;;;0.12;97.89
39363;BME280;25088;43.238;23.110;2023-01-30T15:33:33;96205.97;;;0.13;98.18
39363;BME280;25088;43.238;23.110;2023-01-30T15:36:36;96133.66;;;-0.37;97.99
39363;BME280;25088;43.238;23.110;2023-01-30T15:39:05;96198.63;;;-0.07;98.33
39363;BME280;25088;43.238;23.110;2023-01-30T15:41:35;96204.41;;;-0.10;100.00
39363;BME280;25088;43.238;23.110;2023-01-30T15:49:56;96198.50;;;-0.27;100.00
39363;BME280;25088;43.238;23.110;2023-01-30T15:52:48;96186.91;;;-0.34;100.00
39363;BME280;25088;43.238;23.110;2023-01-30T15:55:26;96174.44;;;-0.48;100.00
39363;BME280;25088;43.238;23.110;2023-01-30T15:58:04;96166.75;;;-0.51;100.00
39363;BME280;25088;43.238;23.110;2023-01-30T16:00:33;96157.78;;;-0.65;100.00
39363;BME280;25088;43.238;23.110;2023-01-30T16:03:02;96169.94;;;-0.69;100.00
39363;BME280;25088;43.238;23.110;2023-01-30T16:05:29;96138.28;;;-1.08;100.00
39363;BME280;25088;43.238;23.110;2023-01-30T16:07:57;96172.84;;;-0.92;100.00
39363;BME280;25088;43.238;23.110;2023-01-30T16:10:28;96184.13;;;-0.96;100.00